• Join FlightAware (Why Join?)
  • Login
  • US Flag 
10:33AM EDT


 

Airport Tracker/Info


-or-


 

Live Flight TrackerFlight Track Log ✈ EGF4174 ✈ 24-Apr-2013 ✈ KSYR - KORD

Flight Track Log - Related Links

Times and Time Zones

All times are in EDT time to prevent confusion due to time zone crossing. See the EGF4174 flight status page for this flight to view local times or setup timezone preferences in your user account.

Time Position Orientation Groundspeed Altitude Reporting Facility
EDT Latitude Longitude Course Direction KTS MPH feet Rate Location/Type
04:45PM 43.1094 -76.1406 286° West 111 128 1,000  Level Boston Center
04:46PM 43.1114 -76.2061 272° West 208 239 3,300 2,640 Climbing Boston Center
04:47PM 43.1150 -76.2889 273° West 216 249 6,400 2,160 Climbing Boston Center
04:48PM 43.2022 -76.5152 281° West  Level FlightAware Approximate
04:49PM 43.2189 -76.6269 286° West  Level FlightAware Approximate
04:49PM 43.1289 -76.4667 276° West 226 260 10,400  Level Cleveland Center
04:50PM 43.2424 -76.7363 286° West  Level FlightAware Approximate
04:50PM 43.1303 -76.5633 271° West 239 275 11,500  Level Cleveland Center
04:51PM 43.1297 -76.6686 270° West 266 306 12,900 1,560 Climbing Cleveland Center
04:52PM 43.1292 -76.7767 270° West 283 326 14,700 1,620 Climbing Cleveland Center
04:53PM 43.1286 -76.8878 270° West 288 331 16,200 1,440 Climbing Cleveland Center
04:54PM 43.1281 -76.9986 270° West 288 331 17,600 1,500 Climbing Cleveland Center
04:55PM 43.1272 -77.1097 269° West 288 331 19,300 1,560 Climbing Cleveland Center
04:56PM 43.1283 -77.2206 271° West 288 331 20,800 1,380 Climbing Cleveland Center
04:57PM 43.1253 -77.3347 268° West 293 337 22,100 1,140 Climbing Cleveland Center
04:58PM 43.1244 -77.4514 269° West 299 344 23,100 960 Climbing Cleveland Center
04:59PM 43.1256 -77.5736 271° West 310 357 24,100 900 Climbing Cleveland Center
05:00PM 43.1247 -77.7017 270° West 327 376 25,000 900 Climbing Cleveland Center
05:01PM 43.1214 -77.8297 268° West 333 383 26,000 960 Climbing Cleveland Center
05:02PM 43.1203 -77.9581 269° West 338 389 27,000 1,080 Climbing Cleveland Center
05:03PM 43.1194 -78.1031 270° West 345 397 28,200 1,080 Climbing Cleveland Center
05:04PM 43.1178 -78.2339 269° West 345 397 29,200 900 Climbing Cleveland Center
05:05PM 43.1164 -78.3619 269° West 345 397 30,100 900 Climbing Cleveland Center
05:06PM 43.1144 -78.4928 269° West 345 397 31,100 960 Climbing Cleveland Center
05:07PM 43.1106 -78.6239 268° West 345 397 32,100 960 Climbing Cleveland Center
05:08PM 43.1086 -78.7547 269° West 350 403 33,100 960 Climbing Cleveland Center
05:09PM 43.1064 -78.8914 269° West 350 403 34,100 960 Climbing Cleveland Center
05:10PM 43.1042 -79.0222 269° West 350 403 35,100 960 Climbing Cleveland Center
05:11PM 43.1000 -79.1000 266° West 340 391 35,800 480 Climbing Toronto Center
05:12PM 43.0833 -79.2167 259° West 340 391 36,000 60 Climbing Toronto Center
05:13PM 43.0833 -79.3667 270° West 350 403 36,000  Level Toronto Center
05:14PM 43.0833 -79.5000 270° West 360 414 36,000  Level Toronto Center
05:15PM 43.0833 -79.6333 270° West 360 414 36,000  Level Toronto Center
05:16PM 43.0667 -79.7667 260° West 350 403 36,000  Level Toronto Center
05:17PM 43.0667 -79.9000 270° West 350 403 36,000  Level Toronto Center
05:18PM 43.0667 -80.0500 270° West 350 403 36,000  Level Toronto Center
05:19PM 43.0667 -80.1833 270° West 350 403 36,000  Level Toronto Center
05:20PM 43.0667 -80.3000 270° West 360 414 36,000  Level Toronto Center
05:21PM 43.0500 -80.4500 261° West 360 414 36,000  Level Toronto Center
05:22PM 43.0500 -80.5667 270° West 360 414 36,000  Level Toronto Center
05:23PM 43.0500 -80.7333 270° West 370 426 36,000  Level Toronto Center
05:24PM 43.0333 -80.8667 260° West 360 414 36,000  Level Toronto Center
05:25PM 43.0167 -81.0000 260° West 370 426 36,000  Level Toronto Center
05:26PM 43.0167 -81.1333 270° West 370 426 36,000  Level Toronto Center
05:27PM 43.0167 -81.2667 270° West 370 426 36,000  Level Toronto Center
05:28PM 43.0167 -81.4333 270° West 380 437 36,000  Level Toronto Center
05:29PM 43.0167 -81.5667 270° West 380 437 36,000  Level Toronto Center
05:30PM 43.0167 -81.7000 270° West 370 426 36,000  Level Toronto Center
05:31PM 43.0167 -81.8500 270° West 360 414 36,000  Level Toronto Center
05:32PM 43.0000 -81.9833 260° West 370 426 36,000  Level Toronto Center
05:33PM 43.0000 -82.1167 270° West 370 426 36,000  Level Toronto Center
05:34PM 43.0000 -82.2833 270° West 380 437 36,000  Level Toronto Center
05:35PM 43.0000 -82.4167 270° West 380 437 36,000  Level Toronto Center
05:36PM 43.0000 -82.5667 270° West 380 437 36,000  Level Toronto Center
05:36PM 43.0028 -82.6272 274° West 384 442 36,000  Level Cleveland Center
05:37PM 42.9958 -82.7717 266° West 384 442 36,000 -120 Level Cleveland Center
05:38PM 42.9867 -82.9189 265° West 384 442 35,800 -900 Descending Cleveland Center
05:39PM 42.9797 -83.0550 266° West 384 442 34,300 -1,320 Descending Cleveland Center
05:40PM 42.9725 -83.1967 266° West 379 436 33,200 -1,080 Descending Cleveland Center
05:41PM 42.9650 -83.3381 266° West 374 430 32,200 -600 Descending Cleveland Center
05:42PM 42.9553 -83.4825 265° West 374 430 32,000 -120 Descending Cleveland Center
05:43PM 42.9475 -83.6211 266° West 379 436 32,000  Level Cleveland Center
05:44PM 42.9372 -83.7653 264° West 384 442 32,000  Level Cleveland Center
05:45PM 42.9272 -83.9064 265° West 384 442 32,000  Level Cleveland Center
05:47PM 42.9167 -84.1333 266° West 390 449 32,000  Level Toronto Center
05:47PM 42.9092 -84.2275 264° West 384 442 32,000 -180 Level Chicago Center
05:48PM 42.9000 -84.3742 265° West 389 448 31,800 -900 Descending Chicago Center
05:50PM 42.8897 -84.5200 265° West 390 449 30,200 -1,500 Descending Chicago Center
05:51PM 42.8772 -84.6622 263° West 381 438 28,700 -1,080 Descending Chicago Center
05:52PM 42.8625 -84.8069 262° West 384 442 28,000 -360 Descending Chicago Center
05:53PM 42.8472 -84.9539 262° West 393 452 28,000  Level Chicago Center
05:54PM 42.8267 -85.1317 261° West 395 455 28,000  Level Chicago Center
05:55PM 42.8103 -85.2786 261° West 394 453 28,000  Level Chicago Center
05:56PM 42.7944 -85.4286 262° West 399 459 28,000  Level Chicago Center
05:57PM 42.7750 -85.5767 260° West 397 457 28,000  Level Chicago Center
05:58PM 42.7472 -85.7222 255° West 397 457 28,000 -120 Level Chicago Center
05:59PM 42.7206 -85.8675 256° West 394 453 27,800 -2,280 Descending Chicago Center
06:01PM 42.6614 -86.1881 256° West 398 458 21,000 -2,520 Descending Chicago Center
06:02PM 42.6361 -86.3208 256° West 368 423 20,000 -540 Descending Chicago Center
06:03PM 42.6111 -86.4569 256° West 370 426 20,000 -720 Level Chicago Center
06:04PM 42.5853 -86.5942 256° West 374 430 18,600 -1,560 Descending Chicago Center
06:05PM 42.5619 -86.7256 256° West 363 418 16,800 -1,860 Descending Chicago Center
06:06PM 42.5286 -86.8494 250° West 355 409 14,800 -2,160 Descending Chicago Center
06:07PM 42.4889 -86.9908 249° West 335 386 12,400 -2,040 Descending Chicago Center
06:08PM 42.4406 -87.0875 236° Southwest 348 400 10,700 -1,380 Descending Chicago Center
06:09PM 42.3714 -87.1428 211° Southwest 289 333 9,600 -1,020 Descending Chicago Center
06:10PM 42.3092 -87.1953 212° Southwest 274 315 8,700 -1,080 Descending Chicago Center
06:11PM 42.2331 -87.2622 213° Southwest 274 315 7,400 -840 Descending Chicago Center
06:12PM 42.1700 -87.3150 212° Southwest 268 308 7,000 -240 Descending Chicago Center
06:13PM 42.1106 -87.3683 214° Southwest 259 298 7,000  Level Chicago Center
06:14PM 42.0547 -87.4311 220° Southwest 269 310 7,000 -240 Level Chicago Center
06:15PM 42.0244 -87.5114 243° Southwest 243 280 6,600 -900 Descending Chicago Center
06:16PM 41.9978 -87.5931 246° West 242 278 5,200 -1,380 Descending Chicago Center